Mc Clellan Airfield
KMCC : rendu visible

Aérodrome :











RETROUVEZ-NOUS SUR...

 
LOGIN :

S'inscrire | Disclaimer

   EN    FR    IT 

 









Légende :    VFR   VFR Marginal   IFR   IFR Intensif   IFR Très Intensif
Visi : 
Plafond : 
>= 8 km
>= 3000ft
5 à 8 km
1000 à 3000 ft
1500m à 5 km
500 à 1000 ft
800 à 1500m
200 à 500 ft
< 800m
< 200 ft
Symboles :   Orages  Brouillard  Fortes neiges  Fortes précipitations  Vent > 20 kt






- Altitude de l'aérodrome : 77 ft


KMCC - Mc Clellan

DERNIER METAR :
  • 210755Z AUTO 00000KT 10SM CLR 10/06 A2973 RMK AO2

METARs EXPIRÉS :
  • 210735Z AUTO 18003KT 10SM CLR 11/06 A2972 RMK AO2
  • 210715Z AUTO 18004KT 10SM CLR 12/06 A2971 RMK AO2
  • 210655Z AUTO 18005KT 10SM CLR 12/06 A2971 RMK AO2
  • 210635Z AUTO 16006KT 10SM CLR 12/06 A2970 RMK AO2
  • 210615Z AUTO 00000KT 10SM CLR 11/06 A2969 RMK AO2
  • 210555Z AUTO 00000KT 10SM CLR 10/05 A2968 RMK AO2
  • 210535Z AUTO 00000KT 10SM CLR 11/06 A2966 RMK AO2
  • 210515Z AUTO 00000KT 10SM CLR 12/06 A2965 RMK AO2

TAF KMCC
Valide du 21 à 06h jusqu'au 22 à 06h UTC


210520Z 2106/2206 VRB05KT P6SM SKC



MET'MAP, la Météo Aéronautique d'un coup d'oeil ! - Copyright ORBIFLY Décembre 2007 - Disclaimer

ORBIFLY MET'MAP TEAM :

Programmation & Développement : Alexandra Zaïnal
Conception & Développement : Baudouin d'Aumeries
Co-Programmation & Développement : Marc-Olivier Méhu
Soutien technique & logistique : Manuel Goepfert

Contact : metmap@orbifly.com




SOURCES & CREDITS :

   NOAA       Earth
Advisory